Time;durP1;ratioP1;P1;durP2;ratioP2;P2;SDS_P1;SDS_P2;PMS_P1;PMS_P2;Temp;Humidity;BMP_temperature;BMP_pressure;BME280_temperature;BME280_humidity;BME280_pressure;Samples;Min_cycle;Max_cycle;Signal;HPM_P1;HPM_P2
2023/12/07 00:00:07;;;;;;;65.1;29.1;;;;;;;-2.65;84.02;;;;;
2023/12/07 00:10:07;;;;;;;58.2;27.6;;;;;;;-2.72;84.55;;;;;
2023/12/07 00:20:07;;;;;;;58.2;27.6;;;;;;;-2.73;84.29;;;;;
2023/12/07 00:31:08;;;;;;;58.2;27.6;;;;;;;-2.69;84.48;;;;;
2023/12/07 00:41:07;;;;;;;56.8;31.5;;;;;;;-2.78;84.84;;;;;
2023/12/07 00:52:07;;;;;;;56.8;31.5;;;;;;;-2.8;84.83;;;;;
2023/12/07 01:03:07;;;;;;;56.8;31.5;;;;;;;-2.52;84.3;;;;;
2023/12/07 01:14:07;;;;;;;58.6;30.3;;;;;;;-2.24;83.83;;;;;
2023/12/07 01:25:07;;;;;;;58.6;30.3;;;;;;;-2.25;83.28;;;;;
2023/12/07 01:35:07;;;;;;;52.4;27.2;;;;;;;-2.24;83.27;;;;;
2023/12/07 01:45:07;;;;;;;52.4;27.2;;;;;;;-2.37;82.71;;;;;
2023/12/07 01:55:07;;;;;;;52.4;27.2;;;;;;;-2.32;82.57;;;;;
2023/12/07 02:05:07;;;;;;;47.4;26.8;;;;;;;-2.29;82.68;;;;;
2023/12/07 02:16:07;;;;;;;47.4;26.8;;;;;;;-2.21;82.37;;;;;
2023/12/07 02:27:07;;;;;;;47.4;26.8;;;;;;;-2.18;82.14;;;;;
2023/12/07 02:37:07;;;;;;;54.2;27.9;;;;;;;-2.21;82.1;;;;;
2023/12/07 02:47:07;;;;;;;54.2;27.9;;;;;;;-2.22;82.35;;;;;
2023/12/07 02:58:07;;;;;;;54.2;27.9;;;;;;;-2.11;82.7;;;;;
2023/12/07 03:09:07;;;;;;;55.7;29.9;;;;;;;-2.18;82.45;;;;;
2023/12/07 03:19:07;;;;;;;55.7;29.9;;;;;;;-2.35;83.37;;;;;
2023/12/07 03:30:07;;;;;;;55.7;29.9;;;;;;;-2.26;83.21;;;;;
2023/12/07 03:40:08;;;;;;;52.6;29.5;;;;;;;-2.25;83.51;;;;;
2023/12/07 03:51:07;;;;;;;52.6;29.5;;;;;;;-2.25;83.62;;;;;
2023/12/07 04:01:07;;;;;;;52.6;29.5;;;;;;;-2.26;83.83;;;;;
2023/12/07 04:12:07;;;;;;;54.1;29.2;;;;;;;-2.26;83.88;;;;;
2023/12/07 04:23:07;;;;;;;54.1;29.2;;;;;;;-2.18;84.17;;;;;
2023/12/07 04:33:07;;;;;;;54.1;29.2;;;;;;;-2.27;83.99;;;;;
2023/12/07 04:44:07;;;;;;;61.5;34;;;;;;;-2.36;83.93;;;;;
2023/12/07 04:55:07;;;;;;;61.5;34;;;;;;;-2.31;84.09;;;;;
2023/12/07 05:06:07;;;;;;;65.1;32.9;;;;;;;-2.25;84.31;;;;;
2023/12/07 05:16:08;;;;;;;65.1;32.9;;;;;;;-2.38;84.21;;;;;
2023/12/07 05:27:07;;;;;;;65.1;32.9;;;;;;;-2.31;84.17;;;;;
2023/12/07 05:38:07;;;;;;;53.9;30.1;;;;;;;-2.38;84.45;;;;;
2023/12/07 05:49:07;;;;;;;53.9;30.1;;;;;;;-2.44;84.72;;;;;
2023/12/07 05:59:07;;;;;;;53.9;30.1;;;;;;;-2.38;84.88;;;;;
2023/12/07 06:10:07;;;;;;;67.7;35.8;;;;;;;-2.31;84.75;;;;;
2023/12/07 06:21:07;;;;;;;67.7;35.8;;;;;;;-2.24;84.7;;;;;
2023/12/07 06:32:07;;;;;;;67.7;35.8;;;;;;;-2.1;84.23;;;;;
2023/12/07 06:42:07;;;;;;;58.9;31.4;;;;;;;-2.24;85;;;;;
2023/12/07 06:53:07;;;;;;;58.9;31.4;;;;;;;-2.13;85.26;;;;;
2023/12/07 07:04:08;;;;;;;61.2;30.5;;;;;;;-1.96;84.73;;;;;
2023/12/07 07:15:07;;;;;;;61.2;30.5;;;;;;;-1.95;85;;;;;
2023/12/07 07:25:07;;;;;;;61.2;30.5;;;;;;;-1.7;84.65;;;;;
2023/12/07 07:35:07;;;;;;;61.4;34.7;;;;;;;-1.49;84.21;;;;;
2023/12/07 07:46:08;;;;;;;61.4;34.7;;;;;;;-1.37;83.87;;;;;
2023/12/07 07:57:07;;;;;;;61.4;34.7;;;;;;;-1.15;84;;;;;
2023/12/07 08:08:07;;;;;;;66.1;35.7;;;;;;;-0.99;83.19;;;;;
2023/12/07 08:19:07;;;;;;;66.1;35.7;;;;;;;-0.83;82.7;;;;;
2023/12/07 08:29:07;;;;;;;66.1;35.7;;;;;;;-0.62;82.54;;;;;
2023/12/07 08:39:09;;;;;;;57.9;31.1;;;;;;;-0.66;83.22;;;;;
2023/12/07 08:50:07;;;;;;;57.9;31.1;;;;;;;-0.65;82.95;;;;;
2023/12/07 09:01:07;;;;;;;57.9;31.1;;;;;;;-0.59;83.07;;;;;
2023/12/07 09:11:07;;;;;;;59.4;33;;;;;;;-0.38;82.84;;;;;
2023/12/07 09:22:07;;;;;;;59.4;33;;;;;;;-0.16;82.21;;;;;
2023/12/07 09:33:07;;;;;;;59.4;33;;;;;;;0.06;81.61;;;;;
2023/12/07 09:43:07;;;;;;;64;34.7;;;;;;;0.18;81.37;;;;;
2023/12/07 09:53:07;;;;;;;64;34.7;;;;;;;0.38;80.5;;;;;
2023/12/07 10:04:07;;;;;;;64.2;33.4;;;;;;;0.81;79.64;;;;;
2023/12/07 10:14:07;;;;;;;64.2;33.4;;;;;;;0.89;78.87;;;;;
2023/12/07 10:24:08;;;;;;;64.2;33.4;;;;;;;1.41;78.79;;;;;
2023/12/07 10:34:07;;;;;;;66.9;41.1;;;;;;;1.47;77.71;;;;;
2023/12/07 10:45:07;;;;;;;66.9;41.1;;;;;;;1.28;77.79;;;;;
2023/12/07 10:55:07;;;;;;;66.9;41.1;;;;;;;1.37;78.3;;;;;
2023/12/07 11:06:08;;;;;;;80.9;44.2;;;;;;;1.39;78.16;;;;;
2023/12/07 11:16:07;;;;;;;80.9;44.2;;;;;;;1.33;77.48;;;;;
2023/12/07 11:27:07;;;;;;;80.9;44.2;;;;;;;1.57;77.76;;;;;
2023/12/07 11:37:07;;;;;;;73.8;41.9;;;;;;;1.47;77.91;;;;;
2023/12/07 11:47:07;;;;;;;73.8;41.9;;;;;;;1.33;78.34;;;;;
2023/12/07 11:58:08;;;;;;;73.8;41.9;;;;;;;1.22;78.9;;;;;
2023/12/07 12:08:07;;;;;;;61.5;40.6;;;;;;;1.38;78.81;;;;;
2023/12/07 12:19:07;;;;;;;61.5;40.6;;;;;;;0.95;80.13;;;;;
2023/12/07 12:30:07;;;;;;;61.5;40.6;;;;;;;0.76;80.68;;;;;
2023/12/07 12:40:07;;;;;;;76.3;43.1;;;;;;;0.99;80.68;;;;;
2023/12/07 12:50:07;;;;;;;76.3;43.1;;;;;;;0.92;80.98;;;;;
2023/12/07 13:01:07;;;;;;;76.3;43.1;;;;;;;0.91;80.88;;;;;
2023/12/07 13:11:07;;;;;;;70;39.7;;;;;;;0.96;81.03;;;;;
2023/12/07 13:21:09;;;;;;;70;39.7;;;;;;;0.6;81.46;;;;;
2023/12/07 13:32:08;;;;;;;70;39.7;;;;;;;0.38;82.45;;;;;
2023/12/07 13:42:08;;;;;;;74.9;41.8;;;;;;;0.29;82.82;;;;;
2023/12/07 13:52:07;;;;;;;74.9;41.8;;;;;;;0.1;83.37;;;;;
2023/12/07 14:03:08;;;;;;;70.3;37.5;;;;;;;0.1;83.64;;;;;
2023/12/07 14:14:07;;;;;;;70.3;37.5;;;;;;;0.09;83.93;;;;;
2023/12/07 14:24:08;;;;;;;70.3;37.5;;;;;;;-0.08;83.4;;;;;
2023/12/07 14:34:07;;;;;;;65.2;33.9;;;;;;;-0.26;84.1;;;;;
2023/12/07 14:44:08;;;;;;;65.2;33.9;;;;;;;-0.45;84.79;;;;;
2023/12/07 14:54:09;;;;;;;65.2;33.9;;;;;;;-0.53;85.01;;;;;
2023/12/07 15:04:07;;;;;;;76.2;42.1;;;;;;;-0.33;85.08;;;;;
2023/12/07 15:15:09;;;;;;;76.2;42.1;;;;;;;-0.37;85.42;;;;;
2023/12/07 15:25:07;;;;;;;76.2;42.1;;;;;;;-0.42;85.43;;;;;
2023/12/07 15:36:07;;;;;;;66.4;39.9;;;;;;;-0.52;85.84;;;;;
2023/12/07 15:47:07;;;;;;;66.4;39.9;;;;;;;-0.43;85.88;;;;;
2023/12/07 15:57:08;;;;;;;66.4;39.9;;;;;;;-0.49;85.96;;;;;
2023/12/07 16:07:07;;;;;;;68.3;36.8;;;;;;;-0.52;86.1;;;;;
2023/12/07 16:17:07;;;;;;;68.3;36.8;;;;;;;-0.59;86.37;;;;;
2023/12/07 16:28:07;;;;;;;68.3;36.8;;;;;;;-0.55;86.47;;;;;
2023/12/07 16:38:07;;;;;;;67.5;36.9;;;;;;;-0.51;86.23;;;;;
2023/12/07 16:49:08;;;;;;;67.5;36.9;;;;;;;-0.49;86.12;;;;;
2023/12/07 17:00:07;;;;;;;67.5;36.9;;;;;;;-0.53;86.16;;;;;
2023/12/07 17:10:07;;;;;;;73.4;38.3;;;;;;;-0.59;86.71;;;;;
2023/12/07 17:20:07;;;;;;;73.4;38.3;;;;;;;-0.69;87.08;;;;;
2023/12/07 17:31:08;;;;;;;73.4;38.3;;;;;;;-0.65;86.84;;;;;
2023/12/07 17:41:08;;;;;;;75.7;39.3;;;;;;;-0.62;86.81;;;;;
2023/12/07 17:52:07;;;;;;;75.7;39.3;;;;;;;-0.6;86.58;;;;;
2023/12/07 18:03:07;;;;;;;72.4;39.3;;;;;;;-0.56;86.8;;;;;
2023/12/07 18:14:07;;;;;;;72.4;39.3;;;;;;;-0.67;86.55;;;;;
2023/12/07 18:25:07;;;;;;;72.4;39.3;;;;;;;-0.64;86.69;;;;;
2023/12/07 18:36:07;;;;;;;72.2;39.9;;;;;;;-0.59;86.6;;;;;
2023/12/07 18:47:08;;;;;;;72.2;39.9;;;;;;;-0.56;86.32;;;;;
2023/12/07 18:57:07;;;;;;;72.2;39.9;;;;;;;-0.5;86.16;;;;;
2023/12/07 19:07:07;;;;;;;81.6;43;;;;;;;-0.69;86.41;;;;;
2023/12/07 19:18:07;;;;;;;81.6;43;;;;;;;-0.64;86.49;;;;;
2023/12/07 19:29:08;;;;;;;81.6;43;;;;;;;-0.41;86.32;;;;;
2023/12/07 19:40:07;;;;;;;67.6;36.9;;;;;;;-0.5;86.08;;;;;
2023/12/07 19:50:07;;;;;;;67.6;36.9;;;;;;;-0.46;86.33;;;;;
2023/12/07 20:01:07;;;;;;;67.6;36.9;;;;;;;-0.38;86.15;;;;;
2023/12/07 20:12:07;;;;;;;76.5;42.3;;;;;;;-0.45;85.83;;;;;
2023/12/07 20:22:09;;;;;;;76.5;42.3;;;;;;;-0.41;86;;;;;
2023/12/07 20:32:07;;;;;;;75.9;40.5;;;;;;;-0.34;85.92;;;;;
2023/12/07 20:43:08;;;;;;;75.9;40.5;;;;;;;-0.42;86.36;;;;;
2023/12/07 20:53:07;;;;;;;75.9;40.5;;;;;;;-0.33;85.81;;;;;
2023/12/07 21:03:07;;;;;;;77.6;39.5;;;;;;;-0.29;85.52;;;;;
2023/12/07 21:14:07;;;;;;;77.6;39.5;;;;;;;-0.46;85.75;;;;;
2023/12/07 21:24:07;;;;;;;77.6;39.5;;;;;;;-0.35;85.77;;;;;
2023/12/07 21:35:07;;;;;;;84.5;41.9;;;;;;;-0.27;85.83;;;;;
2023/12/07 21:46:07;;;;;;;84.5;41.9;;;;;;;-0.22;85.73;;;;;
2023/12/07 21:56:07;;;;;;;84.5;41.9;;;;;;;-0.15;85.45;;;;;
2023/12/07 22:07:08;;;;;;;78;41.9;;;;;;;-0.09;85.65;;;;;
2023/12/07 22:18:07;;;;;;;78;41.9;;;;;;;-0.23;84.91;;;;;
2023/12/07 22:29:07;;;;;;;78;41.9;;;;;;;-0.24;84.72;;;;;
2023/12/07 22:39:07;;;;;;;83.4;43;;;;;;;-0.08;85.19;;;;;
2023/12/07 22:50:07;;;;;;;83.4;43;;;;;;;-0.09;84.89;;;;;
2023/12/07 23:01:07;;;;;;;83.4;43;;;;;;;-0.07;84.82;;;;;
2023/12/07 23:11:08;;;;;;;84.3;43;;;;;;;-0.16;84.67;;;;;
2023/12/07 23:22:07;;;;;;;84.3;43;;;;;;;-0.17;85.58;;;;;
2023/12/07 23:33:07;;;;;;;81.8;43;;;;;;;-0.02;85.35;;;;;
2023/12/07 23:43:07;;;;;;;81.8;43;;;;;;;0.03;85.23;;;;;
2023/12/07 23:53:08;;;;;;;81.8;43;;;;;;;-0.11;85.3;;;;;
